Time;durP1;ratioP1;P1;durP2;ratioP2;P2;SDS_P1;SDS_P2;PMS_P1;PMS_P2;Temp;Humidity;BMP_temperature;BMP_pressure;BME280_temperature;BME280_humidity;BME280_pressure;Samples;Min_cycle;Max_cycle;Signal;HPM_P1;HPM_P2
2022/02/06 00:01:11;;;;;;;21.07;9.70;;;;;;;3.14;74.46;100390.30;1717503;82;21650;-85
2022/02/06 00:03:36;;;;;;;19.67;7.70;;;;;;;3.12;74.44;100385.02;1717265;83;21480;-85
2022/02/06 00:06:03;;;;;;;25.65;9.30;;;;;;;3.13;74.44;100377.69;1762095;81;20985;-85
2022/02/06 00:08:30;;;;;;;60.80;25.88;;;;;;;3.13;74.36;100371.59;1762047;81;21730;-85
2022/02/06 00:10:57;;;;;;;20.70;11.53;;;;;;;3.10;74.34;100368.03;1761983;81;20970;-85
2022/02/06 00:13:23;;;;;;;20.77;11.95;;;;;;;3.09;74.34;100369.26;1762010;81;20985;-85
2022/02/06 00:15:50;;;;;;;16.50;7.00;;;;;;;3.07;74.33;100363.98;1762064;81;21029;-85
2022/02/06 00:18:16;;;;;;;14.60;6.47;;;;;;;3.05;74.33;100361.71;1762008;81;21529;-85
2022/02/06 00:20:56;;;;;;;17.35;8.35;;;;;;;3.02;74.33;100358.06;1761971;81;22568;-85
2022/02/06 00:23:19;;;;;;;21.33;7.15;;;;;;;3.00;74.37;100355.38;1760059;79;21056;-84
2022/02/06 00:30:51;;;;;;;23.22;8.88;;;;;;;2.97;74.53;100355.67;1761974;81;20982;-84
2022/02/06 00:33:18;;;;;;;10.48;4.70;;;;;;;3.01;74.66;100348.50;1760829;79;21697;-85
2022/02/06 00:38:26;;;;;;;17.05;7.17;;;;;;;3.11;74.74;100341.20;1762322;81;20993;-85
2022/02/06 00:43:25;;;;;;;16.15;6.42;;;;;;;3.09;74.56;100339.35;1761996;81;21036;-85
2022/02/06 00:45:52;;;;;;;14.07;5.55;;;;;;;3.04;74.53;100337.84;1762025;81;21788;-85
2022/02/06 00:48:23;;;;;;;15.58;5.80;;;;;;;3.01;74.61;100333.78;1761810;81;20969;-85
2022/02/06 00:50:52;;;;;;;13.83;6.53;;;;;;;3.00;74.67;100333.28;1761673;79;21017;-85
2022/02/06 00:53:18;;;;;;;23.52;12.95;;;;;;;3.01;74.78;100329.00;1761481;81;21114;-86
2022/02/06 00:55:45;;;;;;;16.02;7.47;;;;;;;3.02;74.82;100326.48;1761922;81;21010;-86
2022/02/06 00:58:12;;;;;;;19.70;8.05;;;;;;;3.03;74.85;100321.75;1761810;81;21787;-86
2022/02/06 01:00:38;;;;;;;16.65;9.33;;;;;;;3.06;74.91;100319.69;1762132;81;20969;-85
2022/02/06 01:03:05;;;;;;;23.80;11.45;;;;;;;3.12;74.95;100307.00;1762104;81;20970;-85
2022/02/06 01:05:32;;;;;;;14.47;6.62;;;;;;;3.15;74.97;100299.75;1744778;81;20990;-86
2022/02/06 01:07:59;;;;;;;26.75;13.22;;;;;;;3.16;74.93;100285.94;1762074;81;20974;-84
2022/02/06 01:10:27;;;;;;;16.50;7.75;;;;;;;3.17;74.95;100279.91;1761811;81;21736;-85
2022/02/06 01:13:00;;;;;;;19.73;11.03;;;;;;;3.20;75.03;100279.64;1761910;81;21336;-85
2022/02/06 01:15:28;;;;;;;16.65;8.33;;;;;;;3.24;75.02;100280.67;1761354;79;21030;-85
2022/02/06 01:17:57;;;;;;;19.42;9.00;;;;;;;3.27;75.04;100275.20;1761224;79;21381;-84
2022/02/06 01:20:29;;;;;;;31.57;16.45;;;;;;;3.31;75.05;100271.92;1761259;80;21547;-84
2022/02/06 01:23:03;;;;;;;14.78;7.22;;;;;;;3.37;75.07;100264.81;1761185;80;22615;-85
2022/02/06 01:25:30;;;;;;;10.25;5.97;;;;;;;3.40;74.97;100247.17;1759959;79;21055;-85
2022/02/06 01:27:59;;;;;;;16.17;6.72;;;;;;;3.41;74.96;100248.52;1760651;81;20986;-85
2022/02/06 01:30:30;;;;;;;10.63;5.72;;;;;;;3.43;74.92;100235.58;1760249;79;21496;-85
2022/02/06 01:32:58;;;;;;;10.50;6.08;;;;;;;3.42;74.94;100223.00;1760897;79;20987;-85
2022/02/06 01:35:47;;;;;;;11.45;5.95;;;;;;;3.44;74.99;100220.47;1761380;79;21743;-85
2022/02/06 01:41:02;;;;;;;10.23;4.50;;;;;;;3.51;75.00;100210.82;1763247;81;20985;-86
2022/02/06 01:43:33;;;;;;;6.85;4.40;;;;;;;3.55;74.94;100207.91;1762534;79;20993;-87
2022/02/06 01:46:13;;;;;;;10.70;5.10;;;;;;;3.55;74.88;100198.80;1761982;79;20957;-86
2022/02/06 02:02:38;;;;;;;10.88;5.90;;;;;;;3.65;75.00;100168.47;1749828;82;21736;-85
2022/02/06 02:10:38;;;;;;;9.60;5.10;;;;;;;3.67;74.96;100135.17;1640662;87;21099;-84
2022/02/06 02:45:20;;;;;;;10.90;5.03;;;;;;;3.46;75.41;100058.81;1640750;87;21305;-84
2022/02/06 02:47:43;;;;;;;9.15;4.40;;;;;;;3.46;75.37;100053.61;1717085;82;20982;-84
2022/02/06 02:50:16;;;;;;;11.08;5.25;;;;;;;3.45;75.40;100046.61;1739094;82;21050;-82
2022/02/06 02:55:21;;;;;;;9.03;4.80;;;;;;;3.49;75.51;100035.11;1739514;82;21839;-84
2022/02/06 02:57:54;;;;;;;10.75;4.80;;;;;;;3.49;75.45;100028.61;1733743;82;21520;-84
2022/02/06 03:02:50;;;;;;;11.08;4.70;;;;;;;3.49;75.41;100021.19;1733109;81;21152;-84
2022/02/06 03:05:16;;;;;;;9.83;4.60;;;;;;;3.48;75.40;100016.41;1733787;82;20974;-84
2022/02/06 03:07:42;;;;;;;8.43;4.45;;;;;;;3.46;75.43;100006.78;1733931;82;22573;-84
2022/02/06 03:10:10;;;;;;;11.63;6.22;;;;;;;3.42;75.44;100000.98;1733847;81;20959;-84
2022/02/06 03:12:37;;;;;;;12.80;5.78;;;;;;;3.40;75.42;99985.72;1734060;81;20973;-85
2022/02/06 03:15:20;;;;;;;13.08;6.05;;;;;;;3.37;75.51;99979.95;1733977;82;21426;-84
2022/02/06 03:17:36;;;;;;;11.55;7.08;;;;;;;3.38;75.59;99983.44;1730967;82;21441;-84
2022/02/06 03:20:07;;;;;;;14.80;7.65;;;;;;;3.40;75.68;99971.41;1733639;82;21745;-85
2022/02/06 03:22:35;;;;;;;9.10;5.80;;;;;;;3.41;75.72;99970.56;1732883;82;20967;-84
2022/02/06 03:25:06;;;;;;;13.38;5.80;;;;;;;3.46;75.75;99967.75;1733306;82;21050;-84
2022/02/06 03:27:26;;;;;;;12.33;7.35;;;;;;;3.47;75.75;99962.61;1732427;82;21006;-83
2022/02/06 03:29:53;;;;;;;9.60;6.37;;;;;;;3.52;75.79;99967.11;1733804;82;21460;-83
2022/02/06 03:32:20;;;;;;;10.15;4.87;;;;;;;3.55;75.81;99960.32;1733721;82;22527;-84
2022/02/06 03:34:46;;;;;;;12.90;6.30;;;;;;;3.59;75.78;99950.92;1733800;82;20994;-83
2022/02/06 03:37:13;;;;;;;9.15;6.12;;;;;;;3.61;75.76;99951.45;1733633;81;21026;-83
2022/02/06 03:39:42;;;;;;;10.78;5.80;;;;;;;3.62;75.76;99953.63;1733582;82;21141;-83
2022/02/06 03:42:14;;;;;;;9.60;5.70;;;;;;;3.63;75.78;99945.89;1733393;81;21011;-84
2022/02/06 03:47:19;;;;;;;11.00;6.10;;;;;;;3.67;75.85;99933.47;1733008;81;20983;-84
2022/02/06 03:50:00;;;;;;;11.93;7.00;;;;;;;3.69;75.92;99924.42;1732896;81;21437;-84
2022/02/06 03:52:34;;;;;;;9.48;5.30;;;;;;;3.70;76.03;99908.00;1732810;82;21005;-84
2022/02/06 03:54:56;;;;;;;8.35;5.45;;;;;;;3.73;76.06;99907.22;1732197;82;21010;-84
2022/02/06 03:57:22;;;;;;;11.20;6.42;;;;;;;3.73;76.17;99899.41;1742310;81;21767;-84
2022/02/06 03:59:49;;;;;;;16.23;7.50;;;;;;;3.71;76.18;99890.23;1738212;81;21485;-84
2022/02/06 04:02:16;;;;;;;7.92;4.78;;;;;;;3.68;76.22;99887.53;1738355;82;20983;-84
2022/02/06 04:04:45;;;;;;;10.70;6.67;;;;;;;3.67;76.28;99888.34;1738526;81;20979;-84
2022/02/06 04:07:13;;;;;;;10.75;6.70;;;;;;;3.63;76.39;99882.13;1738493;81;21405;-84
2022/02/06 04:09:49;;;;;;;10.80;5.97;;;;;;;3.62;76.47;99875.17;1738583;81;22350;-84
2022/02/06 04:12:14;;;;;;;12.80;5.75;;;;;;;3.60;76.55;99875.49;1737903;82;21007;-84
2022/02/06 04:17:30;;;;;;;6.05;4.12;;;;;;;3.59;76.66;99854.22;1738460;81;21018;-83
2022/02/06 04:19:56;;;;;;;15.15;7.03;;;;;;;3.58;76.73;99852.86;1738479;82;21022;-85
2022/02/06 04:22:23;;;;;;;11.05;5.80;;;;;;;3.54;76.82;99843.16;1738543;82;21683;-84
2022/02/06 04:24:50;;;;;;;5.80;3.95;;;;;;;3.51;76.90;99841.34;1738452;82;21030;-83
2022/02/06 04:27:17;;;;;;;11.70;6.45;;;;;;;3.49;77.02;99832.17;1738285;82;21433;-83
2022/02/06 04:29:44;;;;;;;9.83;5.45;;;;;;;3.45;77.08;99831.98;1738290;81;21197;-83
2022/02/06 04:32:11;;;;;;;6.80;4.53;;;;;;;3.45;77.21;99818.58;1738565;82;21010;-83
2022/02/06 04:34:37;;;;;;;6.65;3.55;;;;;;;3.43;77.36;99812.82;1738413;82;21855;-84
2022/02/06 04:37:15;;;;;;;8.05;4.70;;;;;;;3.43;77.43;99802.41;1738496;81;21018;-84
2022/02/06 05:11:20;;;;;;;7.60;4.95;;;;;;;3.36;77.86;99767.89;1665217;86;21790;-85
2022/02/06 05:20:10;;;;;;;8.30;3.98;;;;;;;3.20;78.43;99742.60;1659090;86;21071;-84
2022/02/06 05:25:14;;;;;;;3.67;2.92;;;;;;;3.12;78.62;99721.93;1732122;81;20981;-85
2022/02/06 05:30:04;;;;;;;6.00;3.65;;;;;;;3.10;78.76;99717.09;1768302;81;20969;-86
2022/02/06 05:32:47;;;;;;;4.78;3.15;;;;;;;3.10;78.96;99724.47;1767904;81;21557;-84
2022/02/06 05:35:07;;;;;;;4.42;2.70;;;;;;;3.15;79.13;99717.25;1766718;79;21510;-82
2022/02/06 05:37:34;;;;;;;4.47;2.85;;;;;;;3.18;79.14;99706.98;1767856;81;21447;-83
2022/02/06 05:40:01;;;;;;;4.08;2.62;;;;;;;3.19;79.09;99713.94;1767715;81;21711;-83
2022/02/06 05:42:28;;;;;;;3.45;2.70;;;;;;;3.19;79.14;99708.34;1767722;80;20974;-83
2022/02/06 05:44:56;;;;;;;3.22;2.50;;;;;;;3.20;79.18;99702.30;1750483;81;20969;-85
2022/02/06 05:47:24;;;;;;;4.47;2.83;;;;;;;3.20;79.16;99701.00;1767786;81;21033;-83
2022/02/06 05:49:51;;;;;;;6.35;3.25;;;;;;;3.21;79.26;99697.58;1767863;81;20990;-84
2022/02/06 05:52:18;;;;;;;4.00;2.72;;;;;;;3.22;79.33;99695.86;1767942;81;22497;-86
2022/02/06 05:54:45;;;;;;;4.58;3.20;;;;;;;3.22;79.39;99695.43;1768448;81;20953;-86
2022/02/06 05:57:12;;;;;;;4.72;2.77;;;;;;;3.24;79.47;99688.99;1753551;80;20967;-85
2022/02/06 05:59:38;;;;;;;4.20;2.40;;;;;;;3.27;79.41;99677.42;1739385;82;20982;-87
2022/02/06 06:02:06;;;;;;;3.50;2.20;;;;;;;3.25;79.36;99669.55;1739616;82;21484;-84
2022/02/06 06:04:32;;;;;;;2.72;2.35;;;;;;;3.27;79.38;99680.02;1739570;82;21859;-84
2022/02/06 06:06:59;;;;;;;3.72;2.40;;;;;;;3.28;79.39;99672.67;1739541;82;20974;-84
2022/02/06 06:09:25;;;;;;;4.95;3.22;;;;;;;3.28;79.41;99664.86;1739424;82;20987;-84
2022/02/06 06:11:52;;;;;;;2.70;2.10;;;;;;;3.28;79.44;99668.77;1739336;82;21550;-83
2022/02/06 06:14:19;;;;;;;2.52;2.20;;;;;;;3.30;79.47;99669.70;1739526;82;21022;-84
2022/02/06 06:16:45;;;;;;;2.90;2.50;;;;;;;3.29;79.45;99657.13;1739564;82;21726;-83
2022/02/06 06:19:13;;;;;;;3.27;2.98;;;;;;;3.33;79.52;99656.83;1739392;82;20963;-83
2022/02/06 06:21:43;;;;;;;3.30;2.50;;;;;;;3.34;79.50;99647.30;1747856;81;20985;-84
2022/02/06 06:24:08;;;;;;;4.78;3.05;;;;;;;3.34;79.50;99643.39;1747768;81;21153;-84
2022/02/06 06:26:39;;;;;;;5.15;3.55;;;;;;;3.34;79.56;99636.89;1754525;81;20998;-84
2022/02/06 06:29:04;;;;;;;5.45;4.37;;;;;;;3.33;79.51;99636.02;1748243;81;22501;-83
2022/02/06 06:31:30;;;;;;;4.62;3.70;;;;;;;3.31;79.54;99628.16;1746406;81;20954;-83
2022/02/06 06:33:57;;;;;;;4.53;3.17;;;;;;;3.31;79.60;99624.25;1745193;81;21044;-84
2022/02/06 06:36:24;;;;;;;5.33;4.05;;;;;;;3.32;79.69;99617.33;1754702;81;21065;-84
2022/02/06 06:38:52;;;;;;;4.47;3.22;;;;;;;3.34;79.68;99631.30;1754666;81;20993;-85
2022/02/06 06:41:18;;;;;;;4.95;3.55;;;;;;;3.36;79.62;99630.03;1743885;81;21799;-84
2022/02/06 06:43:45;;;;;;;3.33;2.33;;;;;;;3.36;79.71;99627.03;1761500;81;21463;-83
2022/02/06 06:46:12;;;;;;;4.47;2.98;;;;;;;3.37;79.71;99625.31;1738410;81;21018;-84
2022/02/06 06:48:39;;;;;;;3.35;2.40;;;;;;;3.39;79.76;99627.13;1748572;81;20975;-85
2022/02/06 06:51:07;;;;;;;6.20;3.65;;;;;;;3.40;79.68;99628.03;1744656;80;21002;-84
2022/02/06 06:53:37;;;;;;;3.45;2.40;;;;;;;3.40;79.63;99621.11;1738793;82;22664;-85
2022/02/06 06:56:08;;;;;;;5.60;3.55;;;;;;;3.41;79.70;99612.45;1744254;81;20970;-85
2022/02/06 06:58:40;;;;;;;5.42;4.03;;;;;;;3.43;79.71;99613.81;1738221;82;20987;-86
2022/02/06 07:03:32;;;;;;;5.20;4.22;;;;;;;3.47;79.74;99598.77;1720202;83;20982;-89
2022/02/06 07:05:59;;;;;;;4.03;3.02;;;;;;;3.48;79.70;99600.56;1720423;83;21819;-89
2022/02/06 07:08:26;;;;;;;6.10;3.98;;;;;;;3.50;79.76;99588.48;1720121;83;20982;-87
2022/02/06 07:10:52;;;;;;;2.77;2.27;;;;;;;3.54;79.79;99580.38;1720380;83;20971;-87
2022/02/06 07:13:23;;;;;;;2.37;2.15;;;;;;;3.58;79.75;99583.12;1720016;83;21429;-86
2022/02/06 07:15:51;;;;;;;3.12;2.40;;;;;;;3.60;79.72;99561.94;1707946;83;21002;-86
2022/02/06 07:18:19;;;;;;;2.12;1.60;;;;;;;3.63;79.72;99567.68;1720245;83;21709;-85
2022/02/06 07:20:47;;;;;;;1.35;1.25;;;;;;;3.67;79.68;99565.22;1720097;83;20999;-84
2022/02/06 07:23:13;;;;;;;1.20;1.10;;;;;;;3.70;79.81;99572.27;1719815;83;20971;-84
2022/02/06 07:25:43;;;;;;;1.40;1.30;;;;;;;3.75;79.79;99561.56;1719888;83;20988;-84
2022/02/06 07:28:32;;;;;;;1.42;1.32;;;;;;;3.76;79.73;99560.75;1745728;81;20982;-92
2022/02/06 07:31:06;;;;;;;1.67;1.57;;;;;;;3.81;79.73;99549.16;1701208;84;21004;-92
2022/02/06 07:33:33;;;;;;;2.17;1.32;;;;;;;3.85;79.78;99554.97;1704689;84;21541;-86
2022/02/06 07:35:59;;;;;;;2.02;1.20;;;;;;;3.86;79.78;99545.88;1703983;83;20999;-83
2022/02/06 07:38:26;;;;;;;2.85;1.50;;;;;;;3.88;79.71;99538.13;1704018;84;21473;-84
2022/02/06 07:40:53;;;;;;;2.08;1.55;;;;;;;3.89;79.77;99536.87;1704223;84;21032;-85
2022/02/06 07:43:20;;;;;;;1.22;1.12;;;;;;;3.94;79.86;99534.44;1704178;84;21733;-88
2022/02/06 07:45:47;;;;;;;1.37;1.27;;;;;;;3.99;79.82;99528.94;1704307;84;21036;-88
2022/02/06 07:48:15;;;;;;;1.80;1.40;;;;;;;4.03;79.77;99520.81;1704354;84;21022;-87
2022/02/06 07:50:43;;;;;;;2.15;1.50;;;;;;;4.04;79.70;99519.98;1704223;84;21103;-83
2022/02/06 07:53:10;;;;;;;2.02;1.47;;;;;;;4.05;79.73;99524.34;1703851;84;21011;-83
2022/02/06 07:55:37;;;;;;;1.82;1.60;;;;;;;4.10;79.71;99520.17;1704434;84;22367;-85
2022/02/06 07:58:04;;;;;;;2.67;1.60;;;;;;;4.16;79.76;99527.28;1700037;84;21024;-83
2022/02/06 08:00:31;;;;;;;3.80;1.90;;;;;;;4.23;79.74;99514.50;1699478;84;20976;-84
2022/02/06 08:02:58;;;;;;;2.00;1.50;;;;;;;4.28;79.63;99512.92;1701163;84;21043;-85
2022/02/06 08:05:26;;;;;;;2.75;1.62;;;;;;;4.34;79.54;99515.26;1704302;84;21039;-85
2022/02/06 08:07:53;;;;;;;2.37;1.90;;;;;;;4.37;79.52;99508.81;1704094;84;21742;-83
2022/02/06 08:10:21;;;;;;;3.17;1.80;;;;;;;4.43;79.49;99505.98;1696093;84;20995;-84
2022/02/06 08:12:56;;;;;;;3.72;1.60;;;;;;;4.52;79.44;99503.17;1704052;84;21003;-84
2022/02/06 08:15:22;;;;;;;2.45;1.87;;;;;;;4.54;79.30;99495.85;1689932;84;21288;-86
2022/02/06 08:17:50;;;;;;;2.47;1.77;;;;;;;4.57;79.29;99493.78;1665117;86;21048;-85
2022/02/06 08:20:18;;;;;;;3.35;1.90;;;;;;;4.61;79.39;99490.41;1665227;86;21794;-86
2022/02/06 08:22:44;;;;;;;3.98;1.85;;;;;;;4.67;79.38;99491.48;1664844;86;21133;-87
2022/02/06 08:25:12;;;;;;;4.87;1.85;;;;;;;4.74;79.28;99486.44;1660779;86;21051;-84
2022/02/06 08:27:38;;;;;;;1.92;1.60;;;;;;;4.79;79.25;99477.03;1664054;86;21493;-87
2022/02/06 08:30:06;;;;;;;2.15;1.70;;;;;;;4.87;79.12;99478.11;1665359;86;21044;-86
2022/02/06 08:32:33;;;;;;;1.72;1.50;;;;;;;4.86;79.03;99474.63;1665521;86;21764;-85
2022/02/06 08:34:59;;;;;;;1.67;1.30;;;;;;;4.94;79.08;99467.44;1665355;86;21953;-88
2022/02/06 08:37:26;;;;;;;5.28;1.72;;;;;;;5.01;79.10;99465.03;1665359;86;21135;-86
2022/02/06 08:39:53;;;;;;;1.75;1.60;;;;;;;5.10;78.96;99466.11;1665260;86;21435;-88
2022/02/06 08:42:20;;;;;;;2.30;1.72;;;;;;;5.16;78.87;99461.95;1665300;86;21094;-86
2022/02/06 08:44:46;;;;;;;1.80;1.37;;;;;;;5.16;78.65;99451.52;1665200;86;21741;-90
2022/02/06 08:47:16;;;;;;;1.98;1.57;;;;;;;5.15;78.54;99451.04;1665135;86;20989;-88
2022/02/06 08:49:43;;;;;;;2.00;1.42;;;;;;;5.15;78.52;99443.64;1665194;86;20988;-84
2022/02/06 08:52:11;;;;;;;2.58;1.60;;;;;;;5.08;78.46;99429.98;1665522;86;21177;-87
2022/02/06 08:54:38;;;;;;;2.67;1.65;;;;;;;5.17;78.56;99436.73;1665297;86;21012;-85
2022/02/06 08:57:14;;;;;;;1.50;1.30;;;;;;;5.22;78.55;99442.53;1667497;85;22714;-87
2022/02/06 08:59:35;;;;;;;3.00;1.40;;;;;;;5.29;78.65;99447.89;1671564;85;20996;-83
2022/02/06 09:02:02;;;;;;;2.72;1.70;;;;;;;5.37;78.58;99436.81;1672681;85;21048;-84
2022/02/06 09:04:29;;;;;;;1.80;1.37;;;;;;;5.42;78.46;99435.61;1672476;85;21051;-84
2022/02/06 09:06:59;;;;;;;3.20;1.45;;;;;;;5.45;78.37;99441.78;1672446;85;21834;-84
2022/02/06 09:09:25;;;;;;;2.15;1.52;;;;;;;5.49;78.37;99434.92;1672255;85;21722;-83
2022/02/06 09:11:54;;;;;;;2.12;1.45;;;;;;;5.53;78.31;99433.27;1672684;85;21000;-86
2022/02/06 09:14:23;;;;;;;1.92;1.30;;;;;;;5.55;78.28;99430.27;1673121;85;21024;-86
2022/02/06 09:16:51;;;;;;;2.00;1.60;;;;;;;5.52;78.17;99417.13;1672913;85;21197;-90
2022/02/06 09:19:18;;;;;;;1.82;1.35;;;;;;;5.55;78.19;99428.96;1673040;85;21025;-91
2022/02/06 09:21:44;;;;;;;2.95;1.77;;;;;;;5.56;78.00;99426.39;1650453;85;21761;-92
2022/02/06 09:24:11;;;;;;;3.80;1.60;;;;;;;5.54;78.10;99420.26;1673240;85;20986;-90
2022/02/06 09:26:38;;;;;;;2.25;1.70;;;;;;;5.59;78.14;99420.35;1673228;85;21032;-87
2022/02/06 09:29:18;;;;;;;2.65;1.47;;;;;;;5.61;78.14;99422.17;1674025;85;21519;-95
2022/02/06 09:31:50;;;;;;;7.10;3.35;;;;;;;5.63;78.12;99419.57;1673314;85;20988;-92
2022/02/06 09:36:42;;;;;;;2.47;1.80;;;;;;;5.65;78.04;99405.73;1673276;85;21024;-90
2022/02/06 09:39:09;;;;;;;2.52;2.00;;;;;;;5.67;78.08;99399.24;1674481;85;21474;-92
2022/02/06 09:41:47;;;;;;;30.08;16.00;;;;;;;5.71;78.11;99399.77;1629836;85;20992;-89
2022/02/06 09:44:15;;;;;;;7.25;4.80;;;;;;;5.75;78.02;99396.80;1673527;85;21035;-88
2022/02/06 09:46:45;;;;;;;10.50;6.47;;;;;;;5.83;78.25;99388.27;1673553;85;21743;-90
2022/02/06 09:49:12;;;;;;;30.12;17.73;;;;;;;5.88;78.06;99392.31;1673337;85;20972;-88
2022/02/06 09:51:39;;;;;;;7.25;6.37;;;;;;;5.87;77.91;99384.44;1650570;85;20985;-88
2022/02/06 09:54:12;;;;;;;5.55;4.30;;;;;;;5.86;77.86;99378.34;1673330;85;21015;-89
2022/02/06 09:56:43;;;;;;;3.92;3.00;;;;;;;5.84;77.79;99382.22;1642161;85;21083;-89
2022/02/06 09:59:17;;;;;;;6.37;3.92;;;;;;;5.83;77.89;99380.44;1669933;85;21743;-89
2022/02/06 10:01:36;;;;;;;4.25;2.30;;;;;;;5.81;77.90;99379.96;1669012;86;21132;-89
2022/02/06 10:04:08;;;;;;;4.62;2.62;;;;;;;5.78;77.81;99372.05;1681936;82;21501;-89
2022/02/06 10:07:10;;;;;;;4.90;2.98;;;;;;;5.80;78.04;99365.12;1741501;82;20928;-90
2022/02/06 10:09:59;;;;;;;8.25;4.05;;;;;;;5.92;78.21;99360.61;1741328;82;21010;-89
2022/02/06 10:12:25;;;;;;;5.85;3.80;;;;;;;6.06;78.17;99361.80;1741295;82;21783;-90
2022/02/06 10:14:52;;;;;;;4.70;3.22;;;;;;;6.15;78.13;99361.98;1741286;82;20960;-91
2022/02/06 10:17:23;;;;;;;11.83;6.75;;;;;;;6.25;78.01;99356.55;1741323;82;20996;-90
2022/02/06 10:19:53;;;;;;;10.32;5.53;;;;;;;6.29;77.99;99362.69;1720316;82;21446;-91
2022/02/06 10:22:38;;;;;;;8.88;5.28;;;;;;;6.29;77.85;99353.14;1740622;82;21497;-91
2022/02/06 10:25:05;;;;;;;7.97;4.10;;;;;;;6.37;77.96;99349.37;1740340;82;21743;-91
2022/02/06 10:28:10;;;;;;;6.78;4.15;;;;;;;6.41;77.86;99331.14;1741418;82;20948;-90
2022/02/06 10:30:51;;;;;;;9.55;4.65;;;;;;;6.47;77.77;99330.37;1739983;82;21453;-91
2022/02/06 10:33:21;;;;;;;26.40;14.87;;;;;;;6.57;77.72;99323.61;1741051;82;21158;-90
2022/02/06 10:35:55;;;;;;;7.97;5.80;;;;;;;6.58;77.47;99316.20;1740088;82;21465;-90
2022/02/06 10:38:27;;;;;;;24.82;20.43;;;;;;;6.64;77.62;99308.89;1740677;82;21715;-91
2022/02/06 10:44:37;;;;;;;5.05;4.55;;;;;;;6.81;77.39;99310.06;1646929;87;21551;-91
2022/02/06 10:47:04;;;;;;;5.53;5.03;;;;;;;6.91;77.33;99302.83;1647027;87;21047;-90
2022/02/06 10:49:30;;;;;;;44.80;28.92;;;;;;;7.07;77.41;99291.30;1646759;87;21125;-89
2022/02/06 10:52:02;;;;;;;14.83;11.12;;;;;;;7.24;77.35;99283.70;1647201;87;21779;-89
2022/02/06 10:54:34;;;;;;;9.68;7.50;;;;;;;7.36;77.20;99279.53;1646890;87;21016;-89
2022/02/06 10:57:14;;;;;;;15.35;9.73;;;;;;;7.46;76.87;99279.67;1646415;86;21058;-89
2022/02/06 10:59:53;;;;;;;13.05;9.58;;;;;;;7.50;76.64;99277.09;1640507;87;21004;-90
2022/02/06 11:02:57;;;;;;;4.90;3.35;;;;;;;7.62;76.65;99270.27;1618814;87;21012;-90
2022/02/06 11:07:54;;;;;;;5.20;3.90;;;;;;;7.83;76.10;99254.83;1640421;86;21015;-89
2022/02/06 11:11:05;;;;;;;5.65;3.87;;;;;;;7.82;76.01;99250.44;1640369;87;21020;-89
2022/02/06 11:13:49;;;;;;;3.83;2.37;;;;;;;7.87;75.90;99248.77;1639981;87;21518;-89
2022/02/06 11:16:19;;;;;;;2.85;2.20;;;;;;;7.88;75.73;99241.77;1640077;87;21555;-90
2022/02/06 11:18:55;;;;;;;4.47;3.10;;;;;;;7.82;75.49;99241.27;1639988;87;21684;-89
2022/02/06 11:21:22;;;;;;;4.45;3.40;;;;;;;7.73;75.45;99241.16;1657791;82;20916;-89
2022/02/06 11:23:52;;;;;;;7.12;5.05;;;;;;;7.71;75.52;99237.64;1741169;81;20959;-90
2022/02/06 11:26:27;;;;;;;12.18;7.55;;;;;;;7.76;75.61;99231.60;1724404;82;20966;-90
2022/02/06 11:28:58;;;;;;;10.28;6.50;;;;;;;7.83;75.58;99231.66;1743134;81;21010;-90
2022/02/06 11:31:28;;;;;;;18.05;10.85;;;;;;;7.80;75.29;99229.90;1742268;81;21006;-91
2022/02/06 11:33:56;;;;;;;14.90;9.38;;;;;;;7.83;75.43;99214.23;1742814;81;21085;-90
2022/02/06 11:45:40;;;;;;;7.40;4.67;;;;;;;8.14;75.18;99226.34;1533706;93;21779;-91
2022/02/06 11:48:08;;;;;;;8.75;6.45;;;;;;;8.11;74.89;99206.23;1553992;91;21081;-90
2022/02/06 11:54:35;;;;;;;11.70;9.48;;;;;;;8.20;75.01;99218.53;1527547;93;21065;-91
2022/02/06 11:57:27;;;;;;;11.12;8.93;;;;;;;8.22;74.71;99208.97;1520792;93;21030;-90
2022/02/06 12:00:07;;;;;;;10.20;7.87;;;;;;;8.23;74.59;99204.59;1533316;92;22706;-90
2022/02/06 12:02:40;;;;;;;17.12;14.68;;;;;;;8.13;74.39;99208.87;1534029;93;21054;-89
2022/02/06 12:05:27;;;;;;;6.10;5.33;;;;;;;7.97;74.30;99200.83;1503236;93;21667;-90
2022/02/06 12:08:00;;;;;;;6.83;5.47;;;;;;;7.89;74.40;99194.64;1522887;93;21099;-90
2022/02/06 12:10:40;;;;;;;8.73;7.08;;;;;;;7.77;74.49;99194.09;1519910;93;36440;-89
2022/02/06 12:13:33;;;;;;;6.17;5.55;;;;;;;7.71;74.60;99200.54;1526656;94;21903;-89
2022/02/06 12:16:02;;;;;;;9.05;8.13;;;;;;;7.67;74.66;99193.95;1528133;92;21108;-88
2022/02/06 12:18:30;;;;;;;10.98;6.72;;;;;;;7.62;74.71;99187.37;1559702;89;21056;-89
2022/02/06 12:21:20;;;;;;;5.17;4.67;;;;;;;7.67;74.95;99196.13;1641027;86;21083;-89
2022/02/06 12:23:59;;;;;;;8.30;7.42;;;;;;;7.77;75.02;99181.39;1647263;86;21107;-88
2022/02/06 12:26:32;;;;;;;5.90;5.03;;;;;;;7.78;74.98;99182.73;1648212;87;21586;-93
2022/02/06 12:29:12;;;;;;;7.03;4.83;;;;;;;7.75;74.84;99176.17;1647947;86;25154;-90
2022/02/06 12:32:00;;;;;;;12.15;8.63;;;;;;;7.76;74.89;99166.12;1663544;84;21007;-92
2022/02/06 12:37:39;;;;;;;26.23;16.87;;;;;;;7.73;74.88;99153.02;1707708;83;20988;-86
2022/02/06 12:40:11;;;;;;;30.60;18.85;;;;;;;7.73;74.97;99149.09;1707846;83;21737;-90
2022/02/06 12:42:43;;;;;;;52.38;28.90;;;;;;;7.75;75.05;99149.98;1696873;83;20971;-88
2022/02/06 12:45:16;;;;;;;135.45;59.90;;;;;;;7.76;75.00;99141.68;1694737;84;21001;-89
2022/02/06 12:47:59;;;;;;;14.50;9.10;;;;;;;7.85;75.18;99134.36;1667479;85;21481;-89
2022/02/06 12:50:33;;;;;;;12.15;8.03;;;;;;;7.89;75.04;99129.14;1686415;83;21028;-90
2022/02/06 12:53:01;;;;;;;4.85;3.30;;;;;;;7.84;74.86;99130.83;1718988;82;22438;-93
2022/02/06 12:55:33;;;;;;;5.12;4.33;;;;;;;7.83;74.97;99123.86;1746410;82;20955;-92
2022/02/06 12:58:00;;;;;;;4.28;2.85;;;;;;;7.87;75.01;99121.70;1743516;82;20999;-91
2022/02/06 13:00:43;;;;;;;3.22;2.55;;;;;;;7.78;74.71;99126.41;1714345;83;21281;-93
2022/02/06 13:03:32;;;;;;;4.70;4.08;;;;;;;7.73;74.78;99123.30;1709151;82;20942;-91
2022/02/06 13:06:10;;;;;;;3.15;2.40;;;;;;;7.64;74.84;99119.27;1740451;80;21928;-92
2022/02/06 13:08:41;;;;;;;2.50;1.98;;;;;;;7.56;74.87;99107.41;1746485;82;21046;-90
2022/02/06 13:11:20;;;;;;;6.40;3.00;;;;;;;7.49;75.01;99097.73;1733683;82;20987;-93
2022/02/06 13:19:33;;;;;;;5.33;3.33;;;;;;;7.43;75.23;99084.14;1671473;83;21761;-94
2022/02/06 13:22:26;;;;;;;3.02;2.05;;;;;;;7.40;75.26;99082.38;1715226;82;21439;-89
2022/02/06 13:27:49;;;;;;;3.52;2.70;;;;;;;7.33;75.31;99073.14;1700740;83;20977;-92
2022/02/06 13:30:22;;;;;;;4.00;2.35;;;;;;;7.23;75.36;99073.91;1693277;84;21055;-92
2022/02/06 13:35:32;;;;;;;2.72;2.30;;;;;;;7.12;75.64;99095.58;1695136;84;20975;-95
2022/02/06 13:37:56;;;;;;;3.37;2.37;;;;;;;7.10;75.71;99095.13;1714163;83;20959;-92
2022/02/06 13:40:20;;;;;;;2.80;2.17;;;;;;;7.07;75.80;99104.23;1710527;83;20991;-93
2022/02/06 13:43:08;;;;;;;2.70;2.12;;;;;;;7.05;75.91;99097.66;1694173;84;21508;-93
2022/02/06 13:45:35;;;;;;;3.27;2.17;;;;;;;7.05;75.93;99091.12;1696866;84;21757;-93
2022/02/06 13:48:02;;;;;;;2.77;1.85;;;;;;;7.08;76.07;99097.72;1694698;84;20972;-93
2022/02/06 13:50:30;;;;;;;5.65;2.15;;;;;;;7.10;76.05;99094.69;1700513;83;21030;-92
2022/02/06 13:53:14;;;;;;;6.12;3.00;;;;;;;7.14;76.10;99099.09;1710525;83;20956;-93
2022/02/06 13:56:10;;;;;;;3.77;2.20;;;;;;;7.15;76.21;99091.70;1680142;84;21465;-93
2022/02/06 13:59:22;;;;;;;5.50;2.75;;;;;;;7.20;76.18;99078.66;1738013;82;21015;-92
2022/02/06 14:01:56;;;;;;;3.20;2.50;;;;;;;7.21;76.13;99079.13;1671660;85;21531;-91
2022/02/06 14:04:30;;;;;;;3.62;2.65;;;;;;;7.14;76.09;99064.20;1688466;85;21062;-92
2022/02/06 14:07:15;;;;;;;4.30;2.50;;;;;;;7.12;76.10;99079.88;1689824;85;21024;-92
2022/02/06 14:12:20;;;;;;;6.03;2.62;;;;;;;6.97;76.20;99071.41;1666776;85;21704;-92
2022/02/06 14:15:25;;;;;;;10.55;5.95;;;;;;;6.94;76.38;99073.98;1688815;85;21024;-92
2022/02/06 14:17:54;;;;;;;24.30;14.15;;;;;;;6.88;76.48;99072.61;1547580;91;21093;-91
2022/02/06 14:20:28;;;;;;;30.62;16.45;;;;;;;6.86;76.64;99068.22;1542139;92;21056;-90
2022/02/06 14:23:12;;;;;;;;;;;;;;;;;;;;;
2022/02/06 14:25:34;;;;;;;18.73;9.73;;;;;;;6.80;76.93;99070.33;1403439;101;21064;-90
2022/02/06 14:28:30;;;;;;;21.35;11.43;;;;;;;6.76;76.88;99062.87;1380043;102;21061;-89
2022/02/06 14:30:57;;;;;;;17.30;9.88;;;;;;;6.74;77.02;99060.67;1396280;102;21122;-89
2022/02/06 14:33:27;;;;;;;18.50;9.80;;;;;;;6.75;77.17;99042.80;1395883;102;21200;-90
2022/02/06 14:36:06;;;;;;;15.83;8.45;;;;;;;6.77;77.14;99042.82;1378055;104;21591;-90